Rexford, NY

5:09 PM EDT on July 24, 2016 (GMT -0400)
| | Change Station

Elev -9999 ft 0.00 °N, 0.00 °E | Updated

Partly Cloudy
Partly Cloudy
81 °F
Feels Like 81 °F
N
3
Wind Variable Wind from WNW
Gusts mph

Today
High -- | Low -- °F
--% Chance of Precip.
Yesterday
High -- | Low -- °F
Precip. -- in
Pressure 29.94 in
Visibility 10.0 miles
Clouds Few 7000 ft
Scattered Clouds 20000 ft
Scattered Clouds 26000 ft
Heat Index 81 °F
Dew Point 58 °F
Humidity 46%
Rainfall --
Snow Depth Not available.
5:39 AM 8:23 PM
Waning Gibbous, 73% visible
METAR KALB 242051Z 04004KT 10SM FEW070 SCT200 SCT260 31/13 A2995 RMK AO2 SLP139 T03060133 56009
Pressure 29.94 in
Visibility 10.0 miles
Clouds Few 7000 ft
Scattered Clouds 20000 ft
Scattered Clouds 26000 ft
Heat Index 81 °F
Dew Point 58 °F
Humidity 46%
Rainfall --
Snow Depth Not available.
5:39 AM 8:23 PM
Waning Gibbous, 73% visible
METAR KALB 242051Z 04004KT 10SM FEW070 SCT200 SCT260 31/13 A2995 RMK AO2 SLP139 T03060133 56009

10-Day Weather Forecast

Almanac

Astronomy

Jul. 24, 2016 Rise Set
Actual Time
Civil Twilight
Nautical Twilight
Astronomical Twilight
Moon
Length of Visible Light
Length of Day
Tomorrow will be .
, % of the Moon is Illuminated

Today's Extremes

State Highs State Lows

Community

WunderPhotos

Upload Photos

1,927,190 photos uploaded!

WunderBlog® & News

Nearby

Air Quality

  Air Quality AQ Index Pollutant
Not available.

Snow Depth

Station Depth Elevation

Earthquake Activity

City Distance Mag. Time & Date
Minimum magnitude displayed is 2.5.

Coastal Water Temperatures

Place Temperature

Stations

Nearby Weather Stations

Station Location Temp. Windchill Dew Point Humidity Wind Precip. Elev Updated Type
                   

Watches & Warnings

There are currently no watches in effect.